sensor_id;sensor_type;location;lat;lon;timestamp;pressure;altitude;pressure_sealevel;temperature;humidity
77590;BME280;66746;51.328;12.332;2023-01-15T09:25:26;98960.00;;;20.41;72.55
77590;BME280;66746;51.328;12.332;2023-01-15T09:36:51;98987.63;;;8.07;69.98
77590;BME280;66746;51.328;12.332;2023-01-15T09:39:17;98998.00;;;7.02;75.55
77590;BME280;66746;51.328;12.332;2023-01-15T09:42:01;98993.88;;;6.34;76.06
77590;BME280;66746;51.328;12.332;2023-01-15T09:44:37;99004.78;;;6.09;77.82
77590;BME280;66746;51.328;12.332;2023-01-15T09:47:08;99005.47;;;5.92;79.83
77590;BME280;66746;51.328;12.332;2023-01-15T09:49:50;99015.00;;;5.78;80.66
77590;BME280;66746;51.328;12.332;2023-01-15T09:52:33;99018.94;;;5.69;80.77
77590;BME280;66746;51.328;12.332;2023-01-15T09:55:04;99000.22;;;5.66;80.63
77590;BME280;66746;51.328;12.332;2023-01-15T09:57:35;99007.59;;;5.61;81.14
77590;BME280;66746;51.328;12.332;2023-01-15T10:00:03;99001.34;;;5.61;79.76
77590;BME280;66746;51.328;12.332;2023-01-15T10:02:36;98997.53;;;5.66;80.53
77590;BME280;66746;51.328;12.332;2023-01-15T10:05:09;99001.84;;;5.70;78.62
77590;BME280;66746;51.328;12.332;2023-01-15T10:07:40;98999.16;;;5.70;80.88
77590;BME280;66746;51.328;12.332;2023-01-15T10:10:12;98995.63;;;5.70;80.65
77590;BME280;66746;51.328;12.332;2023-01-15T10:12:43;99006.31;;;5.71;79.56
77590;BME280;66746;51.328;12.332;2023-01-15T10:15:15;99002.56;;;5.75;80.04
77590;BME280;66746;51.328;12.332;2023-01-15T10:17:45;99011.44;;;5.77;81.68
77590;BME280;66746;51.328;12.332;2023-01-15T10:20:17;99020.44;;;5.76;77.90
77590;BME280;66746;51.328;12.332;2023-01-15T10:23:08;99020.34;;;5.79;78.96
77590;BME280;66746;51.328;12.332;2023-01-15T10:25:45;99031.09;;;5.79;80.94
77590;BME280;66746;51.328;12.332;2023-01-15T10:28:18;99029.22;;;5.81;79.06
77590;BME280;66746;51.328;12.332;2023-01-15T10:30:46;99031.84;;;5.83;79.23
77590;BME280;66746;51.328;12.332;2023-01-15T10:33:28;99032.75;;;5.82;78.95
77590;BME280;66746;51.328;12.332;2023-01-15T10:36:03;99030.22;;;5.79;76.45
77590;BME280;66746;51.328;12.332;2023-01-15T10:38:38;99034.69;;;5.78;77.58
77590;BME280;66746;51.328;12.332;2023-01-15T10:41:21;99034.78;;;5.77;76.80
77590;BME280;66746;51.328;12.332;2023-01-15T10:43:57;99035.59;;;5.79;76.65
77590;BME280;66746;51.328;12.332;2023-01-15T10:46:28;99032.75;;;5.83;80.46
77590;BME280;66746;51.328;12.332;2023-01-15T10:49:01;99036.13;;;5.88;77.08
77590;BME280;66746;51.328;12.332;2023-01-15T10:51:33;99035.97;;;5.93;75.46
77590;BME280;66746;51.328;12.332;2023-01-15T10:54:04;99018.69;;;5.98;77.28
77590;BME280;66746;51.328;12.332;2023-01-15T10:56:35;99026.50;;;6.04;74.06
77590;BME280;66746;51.328;12.332;2023-01-15T10:59:10;99013.47;;;6.15;73.38
77590;BME280;66746;51.328;12.332;2023-01-15T11:01:39;99010.28;;;6.28;73.86
77590;BME280;66746;51.328;12.332;2023-01-15T11:04:07;99018.31;;;6.49;73.82
77590;BME280;66746;51.328;12.332;2023-01-15T11:06:34;99010.53;;;6.63;72.52
77590;BME280;66746;51.328;12.332;2023-01-15T11:09:02;99021.78;;;6.73;71.89
77590;BME280;66746;51.328;12.332;2023-01-15T11:11:34;99007.25;;;6.77;69.71
77590;BME280;66746;51.328;12.332;2023-01-15T11:16:55;99034.47;;;6.91;69.66
77590;BME280;66746;51.328;12.332;2023-01-15T11:19:41;99012.56;;;6.98;69.72
77590;BME280;66746;51.328;12.332;2023-01-15T11:22:11;99030.63;;;6.96;74.17
77590;BME280;66746;51.328;12.332;2023-01-15T11:24:47;99013.97;;;6.87;70.13
77590;BME280;66746;51.328;12.332;2023-01-15T11:27:16;99017.59;;;6.86;73.43
77590;BME280;66746;51.328;12.332;2023-01-15T11:29:44;99020.03;;;6.72;71.62
77590;BME280;66746;51.328;12.332;2023-01-15T11:32:26;99008.66;;;6.65;68.75
77590;BME280;66746;51.328;12.332;2023-01-15T11:34:54;99023.03;;;6.64;71.38
77590;BME280;66746;51.328;12.332;2023-01-15T11:37:21;99018.53;;;6.65;69.58
77590;BME280;66746;51.328;12.332;2023-01-15T11:39:55;99024.84;;;6.64;69.54
77590;BME280;66746;51.328;12.332;2023-01-15T11:42:21;99028.59;;;6.61;70.88
77590;BME280;66746;51.328;12.332;2023-01-15T11:45:15;99028.84;;;6.55;69.67
77590;BME280;66746;51.328;12.332;2023-01-15T11:47:59;99037.91;;;6.53;72.53
77590;BME280;66746;51.328;12.332;2023-01-15T11:50:51;99047.63;;;6.57;74.24
77590;BME280;66746;51.328;12.332;2023-01-15T11:53:20;99042.38;;;6.54;73.38
77590;BME280;66746;51.328;12.332;2023-01-15T11:55:55;99028.22;;;6.49;71.54
77590;BME280;66746;51.328;12.332;2023-01-15T11:58:25;99031.06;;;6.46;71.33
77590;BME280;66746;51.328;12.332;2023-01-15T12:00:52;99015.00;;;6.43;70.01
77590;BME280;66746;51.328;12.332;2023-01-15T12:03:21;99012.31;;;6.43;72.93
77590;BME280;66746;51.328;12.332;2023-01-15T12:05:55;99017.91;;;6.38;69.94
77590;BME280;66746;51.328;12.332;2023-01-15T12:08:30;99015.22;;;6.38;70.83
77590;BME280;66746;51.328;12.332;2023-01-15T12:11:07;99022.69;;;6.32;69.66
77590;BME280;66746;51.328;12.332;2023-01-15T12:13:44;99021.97;;;6.26;70.50
77590;BME280;66746;51.328;12.332;2023-01-15T12:16:25;99023.88;;;6.24;72.61
77590;BME280;66746;51.328;12.332;2023-01-15T12:18:55;99023.81;;;6.26;71.20
77590;BME280;66746;51.328;12.332;2023-01-15T12:21:56;99030.34;;;6.20;68.09
77590;BME280;66746;51.328;12.332;2023-01-15T12:24:57;99009.72;;;6.19;69.84
77590;BME280;66746;51.328;12.332;2023-01-15T12:27:42;99018.59;;;6.21;69.60
77590;BME280;66746;51.328;12.332;2023-01-15T12:30:20;99011.50;;;6.20;72.08
77590;BME280;66746;51.328;12.332;2023-01-15T12:32:55;99011.50;;;6.20;68.48
77590;BME280;66746;51.328;12.332;2023-01-15T12:35:28;98996.09;;;6.24;69.88
77590;BME280;66746;51.328;12.332;2023-01-15T12:37:57;99005.72;;;6.30;68.11
77590;BME280;66746;51.328;12.332;2023-01-15T12:40:27;98988.59;;;6.31;70.68
77590;BME280;66746;51.328;12.332;2023-01-15T12:42:55;98986.94;;;6.28;69.28
77590;BME280;66746;51.328;12.332;2023-01-15T12:45:44;99004.22;;;6.22;68.38
77590;BME280;66746;51.328;12.332;2023-01-15T12:48:15;98999.94;;;6.17;69.42
77590;BME280;66746;51.328;12.332;2023-01-15T12:50:46;99011.75;;;6.14;71.55
77590;BME280;66746;51.328;12.332;2023-01-15T12:53:16;99010.13;;;6.10;69.55
77590;BME280;66746;51.328;12.332;2023-01-15T12:55:50;99025.44;;;6.08;70.13
77590;BME280;66746;51.328;12.332;2023-01-15T12:58:32;99048.03;;;6.04;72.78
77590;BME280;66746;51.328;12.332;2023-01-15T13:01:05;99039.16;;;6.02;68.72
77590;BME280;66746;51.328;12.332;2023-01-15T13:03:47;99006.72;;;6.05;68.19
77590;BME280;66746;51.328;12.332;2023-01-15T13:06:16;98996.69;;;6.09;71.34
77590;BME280;66746;51.328;12.332;2023-01-15T13:08:50;98998.47;;;6.10;70.38
77590;BME280;66746;51.328;12.332;2023-01-15T13:11:20;99013.88;;;6.06;70.65
77590;BME280;66746;51.328;12.332;2023-01-15T13:13:48;99037.13;;;6.07;71.40
77590;BME280;66746;51.328;12.332;2023-01-15T13:16:34;99050.66;;;6.06;68.60
77590;BME280;66746;51.328;12.332;2023-01-15T13:19:16;99071.44;;;6.02;70.52
77590;BME280;66746;51.328;12.332;2023-01-15T13:21:47;99048.13;;;6.01;69.38
77590;BME280;66746;51.328;12.332;2023-01-15T13:24:30;99046.66;;;5.94;71.27
77590;BME280;66746;51.328;12.332;2023-01-15T13:27:10;99043.00;;;5.95;70.09
77590;BME280;66746;51.328;12.332;2023-01-15T13:29:49;99039.50;;;5.93;70.39
77590;BME280;66746;51.328;12.332;2023-01-15T13:32:22;99039.25;;;5.99;69.54
77590;BME280;66746;51.328;12.332;2023-01-15T13:34:54;99052.66;;;6.01;70.64
77590;BME280;66746;51.328;12.332;2023-01-15T13:37:25;99066.28;;;5.96;71.53
77590;BME280;66746;51.328;12.332;2023-01-15T13:39:56;99060.09;;;5.94;69.94
77590;BME280;66746;51.328;12.332;2023-01-15T13:42:25;99050.41;;;5.90;71.06
77590;BME280;66746;51.328;12.332;2023-01-15T13:45:05;99069.22;;;5.90;70.54
77590;BME280;66746;51.328;12.332;2023-01-15T13:47:34;99060.19;;;5.91;70.58
77590;BME280;66746;51.328;12.332;2023-01-15T13:50:04;99072.66;;;5.94;70.38
77590;BME280;66746;51.328;12.332;2023-01-15T13:52:37;99066.53;;;5.90;72.37
77590;BME280;66746;51.328;12.332;2023-01-15T13:55:09;99066.53;;;5.90;70.81
77590;BME280;66746;51.328;12.332;2023-01-15T13:57:38;99089.78;;;5.91;71.58
77590;BME280;66746;51.328;12.332;2023-01-15T14:00:24;99088.81;;;5.94;72.85
77590;BME280;66746;51.328;12.332;2023-01-15T14:02:52;99091.56;;;5.92;69.81
77590;BME280;66746;51.328;12.332;2023-01-15T14:05:26;99101.66;;;5.87;72.39
77590;BME280;66746;51.328;12.332;2023-01-15T14:07:53;99094.56;;;5.85;71.40
77590;BME280;66746;51.328;12.332;2023-01-15T14:10:24;99106.25;;;5.84;69.71
77590;BME280;66746;51.328;12.332;2023-01-15T14:13:12;99125.06;;;5.84;70.77
77590;BME280;66746;51.328;12.332;2023-01-15T14:15:51;99114.47;;;5.79;71.70
77590;BME280;66746;51.328;12.332;2023-01-15T14:18:50;99122.53;;;5.79;71.43
77590;BME280;66746;51.328;12.332;2023-01-15T14:21:39;99131.66;;;5.75;71.58
77590;BME280;66746;51.328;12.332;2023-01-15T14:24:54;99142.69;;;5.92;70.24
77590;BME280;66746;51.328;12.332;2023-01-15T14:27:57;99138.13;;;5.94;71.26
77590;BME280;66746;51.328;12.332;2023-01-15T14:31:10;99123.72;;;5.95;68.80
77590;BME280;66746;51.328;12.332;2023-01-15T14:37:00;99143.94;;;6.05;68.04
77590;BME280;66746;51.328;12.332;2023-01-15T14:39:45;99133.19;;;6.05;68.23
77590;BME280;66746;51.328;12.332;2023-01-15T14:42:37;99154.78;;;6.04;70.43
77590;BME280;66746;51.328;12.332;2023-01-15T14:45:39;99141.50;;;5.99;67.87
77590;BME280;66746;51.328;12.332;2023-01-15T14:48:43;99159.50;;;5.97;67.26
77590;BME280;66746;51.328;12.332;2023-01-15T14:51:51;99157.38;;;5.82;69.02
77590;BME280;66746;51.328;12.332;2023-01-15T14:54:35;99149.44;;;5.79;67.78
77590;BME280;66746;51.328;12.332;2023-01-15T14:57:15;99158.88;;;5.66;68.40
77590;BME280;66746;51.328;12.332;2023-01-15T14:59:58;99147.38;;;5.63;68.64
77590;BME280;66746;51.328;12.332;2023-01-15T15:05:47;99171.19;;;5.49;70.51
77590;BME280;66746;51.328;12.332;2023-01-15T15:08:35;99160.66;;;5.43;68.56
77590;BME280;66746;51.328;12.332;2023-01-15T15:11:35;99163.75;;;5.32;69.97
77590;BME280;66746;51.328;12.332;2023-01-15T15:14:22;99155.78;;;5.29;70.75
77590;BME280;66746;51.328;12.332;2023-01-15T15:16:52;99156.00;;;5.23;69.60
77590;BME280;66746;51.328;12.332;2023-01-15T15:19:26;99157.75;;;5.24;69.50
77590;BME280;66746;51.328;12.332;2023-01-15T15:21:54;99144.53;;;5.18;68.73
77590;BME280;66746;51.328;12.332;2023-01-15T15:24:25;99161.69;;;5.14;70.67
77590;BME280;66746;51.328;12.332;2023-01-15T15:26:54;99166.38;;;5.09;69.38
77590;BME280;66746;51.328;12.332;2023-01-15T15:29:21;99148.75;;;5.00;69.54
77590;BME280;66746;51.328;12.332;2023-01-15T15:31:49;99152.19;;;5.04;70.83
77590;BME280;66746;51.328;12.332;2023-01-15T15:34:25;99164.81;;;5.02;72.72
77590;BME280;66746;51.328;12.332;2023-01-15T15:36:53;99147.38;;;4.89;70.76
77590;BME280;66746;51.328;12.332;2023-01-15T15:39:23;99160.84;;;4.87;70.65
77590;BME280;66746;51.328;12.332;2023-01-15T15:41:54;99155.47;;;4.87;70.37
77590;BME280;66746;51.328;12.332;2023-01-15T15:44:45;99149.44;;;4.81;69.99
77590;BME280;66746;51.328;12.332;2023-01-15T15:47:36;99147.66;;;4.80;70.77
77590;BME280;66746;51.328;12.332;2023-01-15T15:50:20;99145.91;;;4.79;71.07
77590;BME280;66746;51.328;12.332;2023-01-15T15:52:48;99127.53;;;4.67;71.84
77590;BME280;66746;51.328;12.332;2023-01-15T15:55:16;99128.47;;;4.66;71.34
77590;BME280;66746;51.328;12.332;2023-01-15T15:57:44;99132.00;;;4.68;71.27
77590;BME280;66746;51.328;12.332;2023-01-15T16:00:16;99136.47;;;4.67;73.44
77590;BME280;66746;51.328;12.332;2023-01-15T16:02:55;99127.03;;;4.56;71.15
77590;BME280;66746;51.328;12.332;2023-01-15T16:05:27;99143.06;;;4.57;70.26
77590;BME280;66746;51.328;12.332;2023-01-15T16:08:06;99126.81;;;4.62;69.89
77590;BME280;66746;51.328;12.332;2023-01-15T16:10:34;99136.53;;;4.66;69.08
77590;BME280;66746;51.328;12.332;2023-01-15T16:13:03;99132.28;;;4.59;70.46
77590;BME280;66746;51.328;12.332;2023-01-15T16:15:34;99137.59;;;4.60;72.39
77590;BME280;66746;51.328;12.332;2023-01-15T16:18:03;99143.13;;;4.56;71.44
77590;BME280;66746;51.328;12.332;2023-01-15T16:20:31;99127.94;;;4.55;70.92
77590;BME280;66746;51.328;12.332;2023-01-15T16:23:00;99120.84;;;4.54;70.68
77590;BME280;66746;51.328;12.332;2023-01-15T16:25:28;99131.56;;;4.54;70.22
77590;BME280;66746;51.328;12.332;2023-01-15T16:27:59;99131.75;;;4.47;72.40
77590;BME280;66746;51.328;12.332;2023-01-15T16:30:27;99143.34;;;4.49;70.49
77590;BME280;66746;51.328;12.332;2023-01-15T16:32:54;99157.56;;;4.52;70.47
77590;BME280;66746;51.328;12.332;2023-01-15T16:35:26;99175.41;;;4.53;70.04
77590;BME280;66746;51.328;12.332;2023-01-15T16:37:54;99192.41;;;4.53;68.88
77590;BME280;66746;51.328;12.332;2023-01-15T16:40:27;99199.38;;;4.59;70.81
77590;BME280;66746;51.328;12.332;2023-01-15T16:43:06;99199.44;;;4.57;71.33
77590;BME280;66746;51.328;12.332;2023-01-15T16:45:35;99207.38;;;4.60;69.70
77590;BME280;66746;51.328;12.332;2023-01-15T16:48:24;99188.50;;;4.63;70.39
77590;BME280;66746;51.328;12.332;2023-01-15T16:50:54;99193.75;;;4.66;72.04
77590;BME280;66746;51.328;12.332;2023-01-15T16:53:31;99184.03;;;4.64;71.03
77590;BME280;66746;51.328;12.332;2023-01-15T16:56:02;99190.38;;;4.61;70.74
77590;BME280;66746;51.328;12.332;2023-01-15T16:58:34;99185.88;;;4.62;69.21
77590;BME280;66746;51.328;12.332;2023-01-15T17:01:31;99195.72;;;4.61;69.95
77590;BME280;66746;51.328;12.332;2023-01-15T17:03:59;99196.63;;;4.62;69.41
77590;BME280;66746;51.328;12.332;2023-01-15T17:06:26;99193.97;;;4.60;70.44
77590;BME280;66746;51.328;12.332;2023-01-15T17:08:54;99196.81;;;4.56;71.56
77590;BME280;66746;51.328;12.332;2023-01-15T17:11:23;99191.25;;;4.62;69.66
77590;BME280;66746;51.328;12.332;2023-01-15T17:13:50;99194.84;;;4.61;68.97
77590;BME280;66746;51.328;12.332;2023-01-15T17:16:19;99188.75;;;4.56;71.97
77590;BME280;66746;51.328;12.332;2023-01-15T17:18:47;99202.25;;;4.53;72.02
77590;BME280;66746;51.328;12.332;2023-01-15T17:21:17;99211.97;;;4.58;69.77
77590;BME280;66746;51.328;12.332;2023-01-15T17:23:46;99217.34;;;4.57;70.75
77590;BME280;66746;51.328;12.332;2023-01-15T17:26:16;99216.31;;;4.61;69.49
77590;BME280;66746;51.328;12.332;2023-01-15T17:28:43;99209.09;;;4.63;70.68
77590;BME280;66746;51.328;12.332;2023-01-15T17:31:19;99209.28;;;4.58;70.88
77590;BME280;66746;51.328;12.332;2023-01-15T17:33:47;99209.09;;;4.63;68.79
77590;BME280;66746;51.328;12.332;2023-01-15T17:36:14;99216.25;;;4.64;70.87
77590;BME280;66746;51.328;12.332;2023-01-15T17:38:41;99207.25;;;4.65;68.44
77590;BME280;66746;51.328;12.332;2023-01-15T17:41:08;99199.94;;;4.70;70.30
77590;BME280;66746;51.328;12.332;2023-01-15T17:43:35;99199.94;;;4.70;68.54
77590;BME280;66746;51.328;12.332;2023-01-15T17:46:01;99219.38;;;4.78;67.98
77590;BME280;66746;51.328;12.332;2023-01-15T17:48:29;99215.31;;;4.65;69.53
77590;BME280;66746;51.328;12.332;2023-01-15T17:50:58;99217.97;;;4.65;68.72
77590;BME280;66746;51.328;12.332;2023-01-15T17:53:25;99225.00;;;4.69;70.60
77590;BME280;66746;51.328;12.332;2023-01-15T17:55:52;99209.28;;;4.58;69.58
77590;BME280;66746;51.328;12.332;2023-01-15T17:58:44;99233.31;;;4.61;70.14
77590;BME280;66746;51.328;12.332;2023-01-15T18:01:29;99230.88;;;4.54;70.50
77590;BME280;66746;51.328;12.332;2023-01-15T18:04:20;99236.25;;;4.54;70.95
77590;BME280;66746;51.328;12.332;2023-01-15T18:07:08;99223.09;;;4.44;71.03
77590;BME280;66746;51.328;12.332;2023-01-15T18:09:38;99213.31;;;4.43;70.95
77590;BME280;66746;51.328;12.332;2023-01-15T18:12:05;99218.69;;;4.43;72.77
77590;BME280;66746;51.328;12.332;2023-01-15T18:14:33;99210.72;;;4.40;71.36
77590;BME280;66746;51.328;12.332;2023-01-15T18:17:00;99209.59;;;4.47;70.68
77590;BME280;66746;51.328;12.332;2023-01-15T18:19:28;99207.75;;;4.49;70.18
77590;BME280;66746;51.328;12.332;2023-01-15T18:21:54;99190.88;;;4.44;71.17
77590;BME280;66746;51.328;12.332;2023-01-15T18:24:21;99208.44;;;4.56;70.73
77590;BME280;66746;51.328;12.332;2023-01-15T18:26:47;99203.28;;;4.48;71.70
77590;BME280;66746;51.328;12.332;2023-01-15T18:29:16;99211.22;;;4.53;71.99
77590;BME280;66746;51.328;12.332;2023-01-15T18:31:43;99198.13;;;4.42;73.45
77590;BME280;66746;51.328;12.332;2023-01-15T18:34:09;99211.44;;;4.45;73.47
77590;BME280;66746;51.328;12.332;2023-01-15T18:36:38;99210.72;;;4.40;72.12
77590;BME280;66746;51.328;12.332;2023-01-15T18:39:05;99214.50;;;4.33;71.95
77590;BME280;66746;51.328;12.332;2023-01-15T18:41:33;99212.97;;;4.26;72.84
77590;BME280;66746;51.328;12.332;2023-01-15T18:44:19;99215.47;;;4.32;71.37
77590;BME280;66746;51.328;12.332;2023-01-15T18:47:05;99218.13;;;4.32;73.54
77590;BME280;66746;51.328;12.332;2023-01-15T18:49:33;99208.44;;;4.28;72.93
77590;BME280;66746;51.328;12.332;2023-01-15T18:53:59;99221.09;;;4.23;72.87
77590;BME280;66746;51.328;12.332;2023-01-15T18:56:25;99210.53;;;4.17;73.20
77590;BME280;66746;51.328;12.332;2023-01-15T18:58:52;99224.78;;;4.19;72.40
77590;BME280;66746;51.328;12.332;2023-01-15T19:01:17;99217.94;;;4.09;72.40
77590;BME280;66746;51.328;12.332;2023-01-15T19:03:42;99219.72;;;4.10;74.01
77590;BME280;66746;51.328;12.332;2023-01-15T19:06:08;99225.97;;;4.11;74.84
77590;BME280;66746;51.328;12.332;2023-01-15T19:08:34;99226.75;;;4.14;72.34
77590;BME280;66746;51.328;12.332;2023-01-15T19:11:09;99222.34;;;4.12;73.35
77590;BME280;66746;51.328;12.332;2023-01-15T19:13:34;99223.03;;;4.18;75.06
77590;BME280;66746;51.328;12.332;2023-01-15T19:16:00;99226.75;;;4.14;73.11
77590;BME280;66746;51.328;12.332;2023-01-15T19:18:25;99218.16;;;4.03;75.87
77590;BME280;66746;51.328;12.332;2023-01-15T19:20:50;99217.97;;;4.08;74.49
77590;BME280;66746;51.328;12.332;2023-01-15T19:23:16;99229.47;;;4.13;75.88
77590;BME280;66746;51.328;12.332;2023-01-15T19:25:42;99226.63;;;4.17;73.92
77590;BME280;66746;51.328;12.332;2023-01-15T19:28:14;99224.78;;;4.19;72.94
77590;BME280;66746;51.328;12.332;2023-01-15T19:30:40;99214.28;;;4.12;73.86
77590;BME280;66746;51.328;12.332;2023-01-15T19:33:07;99223.22;;;4.12;74.11
77590;BME280;66746;51.328;12.332;2023-01-15T19:35:33;99215.19;;;4.12;73.78
77590;BME280;66746;51.328;12.332;2023-01-15T19:37:58;99213.50;;;4.08;74.37
77590;BME280;66746;51.328;12.332;2023-01-15T19:40:23;99212.69;;;4.06;73.57
77590;BME280;66746;51.328;12.332;2023-01-15T19:42:49;99205.66;;;4.02;74.11
77590;BME280;66746;51.328;12.332;2023-01-15T19:45:16;99213.63;;;4.04;75.01
77590;BME280;66746;51.328;12.332;2023-01-15T19:47:43;99200.28;;;4.02;75.81
77590;BME280;66746;51.328;12.332;2023-01-15T19:50:11;99206.25;;;4.12;74.78
77590;BME280;66746;51.328;12.332;2023-01-15T19:52:37;99208.97;;;4.10;74.02
77590;BME280;66746;51.328;12.332;2023-01-15T19:55:04;99198.38;;;4.06;75.69
77590;BME280;66746;51.328;12.332;2023-01-15T19:57:29;99201.75;;;4.12;73.43
77590;BME280;66746;51.328;12.332;2023-01-15T19:59:55;99200.00;;;4.11;73.34
77590;BME280;66746;51.328;12.332;2023-01-15T20:02:21;99201.75;;;4.12;74.16
77590;BME280;66746;51.328;12.332;2023-01-15T20:04:48;99204.22;;;4.20;72.90
77590;BME280;66746;51.328;12.332;2023-01-15T20:07:13;99190.16;;;4.12;74.53
77590;BME280;66746;51.328;12.332;2023-01-15T20:09:39;99194.44;;;4.17;74.00
77590;BME280;66746;51.328;12.332;2023-01-15T20:12:11;99189.97;;;4.18;73.60
77590;BME280;66746;51.328;12.332;2023-01-15T20:14:36;99181.38;;;4.07;75.67
77590;BME280;66746;51.328;12.332;2023-01-15T20:17:01;99199.84;;;4.16;75.30
77590;BME280;66746;51.328;12.332;2023-01-15T20:19:28;99181.97;;;4.16;74.49
77590;BME280;66746;51.328;12.332;2023-01-15T20:21:54;99197.19;;;4.16;74.64
77590;BME280;66746;51.328;12.332;2023-01-15T20:24:19;99195.38;;;4.16;73.32
77590;BME280;66746;51.328;12.332;2023-01-15T20:26:44;99185.34;;;4.23;72.86
77590;BME280;66746;51.328;12.332;2023-01-15T20:29:09;99187.28;;;4.18;73.40
77590;BME280;66746;51.328;12.332;2023-01-15T20:31:38;99178.44;;;4.14;74.31
77590;BME280;66746;51.328;12.332;2023-01-15T20:34:03;99182.16;;;4.10;74.68
77590;BME280;66746;51.328;12.332;2023-01-15T20:36:30;99184.84;;;4.10;74.36
77590;BME280;66746;51.328;12.332;2023-01-15T20:39:01;99171.28;;;4.15;73.76
77590;BME280;66746;51.328;12.332;2023-01-15T20:41:27;99173.69;;;4.24;73.71
77590;BME280;66746;51.328;12.332;2023-01-15T20:43:52;99165.09;;;4.13;73.98
77590;BME280;66746;51.328;12.332;2023-01-15T20:46:20;99176.53;;;4.18;75.36
77590;BME280;66746;51.328;12.332;2023-01-15T20:48:45;99173.28;;;4.08;72.88
77590;BME280;66746;51.328;12.332;2023-01-15T20:51:14;99168.81;;;4.09;74.54
77590;BME280;66746;51.328;12.332;2023-01-15T20:53:41;99174.06;;;4.12;73.72
77590;BME280;66746;51.328;12.332;2023-01-15T20:56:23;99171.44;;;4.10;75.28
77590;BME280;66746;51.328;12.332;2023-01-15T20:58:52;99166.13;;;4.07;74.27
77590;BME280;66746;51.328;12.332;2023-01-15T21:01:20;99158.16;;;4.06;73.97
77590;BME280;66746;51.328;12.332;2023-01-15T21:03:45;99170.66;;;4.05;74.97
77590;BME280;66746;51.328;12.332;2023-01-15T21:06:11;99164.50;;;4.03;74.09
77590;BME280;66746;51.328;12.332;2023-01-15T21:08:36;99166.13;;;4.07;74.65
77590;BME280;66746;51.328;12.332;2023-01-15T21:11:10;99169.75;;;4.06;73.85
77590;BME280;66746;51.328;12.332;2023-01-15T21:13:40;99168.28;;;3.96;73.28
77590;BME280;66746;51.328;12.332;2023-01-15T21:16:06;99166.72;;;3.89;75.77
77590;BME280;66746;51.328;12.332;2023-01-15T21:18:33;99160.69;;;3.81;74.71
77590;BME280;66746;51.328;12.332;2023-01-15T21:21:11;99153.50;;;3.83;75.27
77590;BME280;66746;51.328;12.332;2023-01-15T21:23:37;99164.34;;;3.79;75.50
77590;BME280;66746;51.328;12.332;2023-01-15T21:26:03;99156.44;;;3.74;75.62
77590;BME280;66746;51.328;12.332;2023-01-15T21:28:29;99170.81;;;3.72;75.66
77590;BME280;66746;51.328;12.332;2023-01-15T21:30:54;99167.84;;;3.81;74.38
77590;BME280;66746;51.328;12.332;2023-01-15T21:33:19;99174.00;;;3.84;74.91
77590;BME280;66746;51.328;12.332;2023-01-15T21:35:45;99168.63;;;3.84;76.15
77590;BME280;66746;51.328;12.332;2023-01-15T21:38:10;99169.47;;;3.86;75.31
77590;BME280;66746;51.328;12.332;2023-01-15T21:40:36;99176.69;;;3.84;75.19
77590;BME280;66746;51.328;12.332;2023-01-15T21:43:03;99158.19;;;3.75;74.77
77590;BME280;66746;51.328;12.332;2023-01-15T21:45:28;99177.47;;;3.88;75.81
77590;BME280;66746;51.328;12.332;2023-01-15T21:47:54;99174.88;;;3.85;75.28
77590;BME280;66746;51.328;12.332;2023-01-15T21:50:19;99175.97;;;3.79;75.12
77590;BME280;66746;51.328;12.332;2023-01-15T21:52:44;99184.72;;;3.84;76.25
77590;BME280;66746;51.328;12.332;2023-01-15T21:55:09;99184.00;;;3.79;76.66
77590;BME280;66746;51.328;12.332;2023-01-15T21:57:41;99185.50;;;3.88;76.20
77590;BME280;66746;51.328;12.332;2023-01-15T22:00:09;99181.91;;;3.89;74.71
77590;BME280;66746;51.328;12.332;2023-01-15T22:02:35;99177.16;;;3.98;74.64
77590;BME280;66746;51.328;12.332;2023-01-15T22:05:01;99177.16;;;3.98;74.17
77590;BME280;66746;51.328;12.332;2023-01-15T22:07:26;99175.41;;;3.97;76.22
77590;BME280;66746;51.328;12.332;2023-01-15T22:09:51;99170.13;;;3.94;75.93
77590;BME280;66746;51.328;12.332;2023-01-15T22:12:16;99161.59;;;3.80;75.93
77590;BME280;66746;51.328;12.332;2023-01-15T22:14:42;99177.44;;;3.89;74.84
77590;BME280;66746;51.328;12.332;2023-01-15T22:17:10;99168.63;;;3.84;77.05
77590;BME280;66746;51.328;12.332;2023-01-15T22:19:35;99167.69;;;3.87;76.07
77590;BME280;66746;51.328;12.332;2023-01-15T22:22:03;99163.25;;;3.86;75.79
77590;BME280;66746;51.328;12.332;2023-01-15T22:24:32;99162.22;;;3.90;75.21
77590;BME280;66746;51.328;12.332;2023-01-15T22:26:58;99164.94;;;3.88;75.88
77590;BME280;66746;51.328;12.332;2023-01-15T22:29:25;99166.00;;;3.83;76.05
77590;BME280;66746;51.328;12.332;2023-01-15T22:31:51;99158.09;;;3.78;76.21
77590;BME280;66746;51.328;12.332;2023-01-15T22:34:19;99164.28;;;3.82;76.36
77590;BME280;66746;51.328;12.332;2023-01-15T22:36:44;99154.22;;;3.88;75.30
77590;BME280;66746;51.328;12.332;2023-01-15T22:39:10;99153.22;;;3.92;76.69
77590;BME280;66746;51.328;12.332;2023-01-15T22:41:35;99157.56;;;3.96;77.08
77590;BME280;66746;51.328;12.332;2023-01-15T22:44:00;99161.25;;;3.92;76.60
77590;BME280;66746;51.328;12.332;2023-01-15T22:46:26;99145.28;;;3.88;75.89
77590;BME280;66746;51.328;12.332;2023-01-15T22:48:51;99158.63;;;3.91;77.00
77590;BME280;66746;51.328;12.332;2023-01-15T22:51:18;99160.56;;;3.86;77.35
77590;BME280;66746;51.328;12.332;2023-01-15T22:53:43;99157.06;;;3.84;78.00
77590;BME280;66746;51.328;12.332;2023-01-15T22:56:08;99154.22;;;3.88;77.22
77590;BME280;66746;51.328;12.332;2023-01-15T22:58:33;99151.72;;;3.82;77.52
77590;BME280;66746;51.328;12.332;2023-01-15T23:01:01;99156.06;;;3.86;78.15
77590;BME280;66746;51.328;12.332;2023-01-15T23:03:26;99149.16;;;3.79;76.49
77590;BME280;66746;51.328;12.332;2023-01-15T23:05:51;99131.88;;;3.88;78.00
77590;BME280;66746;51.328;12.332;2023-01-15T23:08:18;99145.28;;;3.89;77.74
77590;BME280;66746;51.328;12.332;2023-01-15T23:10:43;99141.00;;;3.82;78.33